Urbain, Illinois
Current Conditions -  °F | °C
As of 8:52 AM on Wednesday 26 Nov 2014 (Local Time) from KMDH Reporting Station
Few Clouds Few Clouds  
Wind Chill: 24°   Ceiling: Unl
Heat Index: 31°   Visibility: 9mi
Dew Point: 27°   Wind: 7mph
Humidity: 85%   Direction: 140°SE
Pressure: 30.13"   Gusts: NA
Location:  37.9667°N, 89.1298°W
Report Text: KMDH 261452Z 14006KT 9SM FEW120 FEW250 M01/M03 A3013 RMK AO2 SLP205 I3000 T10061028 53001
Loading
Personal Weather Stations






























Interactive Weather Map New forecast layout! Learn more

10-Day Weather Forecast

Advertisements
Track Severe Weather on mobile